Time;durP1;ratioP1;P1;durP2;ratioP2;P2;SDS_P1;SDS_P2;PMS_P1;PMS_P2;Temp;Humidity;BMP_temperature;BMP_pressure;BME280_temperature;BME280_humidity;BME280_pressure;Samples;Min_cycle;Max_cycle;Signal;HPM_P1;HPM_P2
2022/03/14 00:01:08;;;;;;;3.77;2.43;;;;;;;5.35;46.44;100453.97;4975307;28;20223;-87
2022/03/14 00:03:41;;;;;;;5.00;2.67;;;;;;;5.28;46.66;100450.59;4975190;28;20621;-87
2022/03/14 00:06:10;;;;;;;7.80;2.47;;;;;;;5.29;46.57;100451.47;4975495;28;20177;-87
2022/03/14 00:08:36;;;;;;;11.57;3.00;;;;;;;5.23;47.26;100452.38;4975401;28;20186;-87
2022/03/14 00:11:02;;;;;;;4.10;2.03;;;;;;;5.23;47.41;100454.13;4974115;28;20259;-87
2022/03/14 00:13:28;;;;;;;3.20;1.90;;;;;;;5.27;47.73;100453.19;4975333;28;20553;-86
2022/03/14 00:15:55;;;;;;;4.50;2.10;;;;;;;5.24;46.97;100464.50;4958013;28;20247;-87
2022/03/14 00:18:21;;;;;;;17.73;2.87;;;;;;;5.28;47.26;100463.59;4958230;28;20651;-87
2022/03/14 00:20:47;;;;;;;4.77;1.73;;;;;;;5.27;46.72;100464.47;4957882;28;20194;-87
2022/03/14 00:23:15;;;;;;;5.43;1.97;;;;;;;5.14;47.03;100469.78;4957899;28;20252;-87
2022/03/14 00:25:41;;;;;;;4.83;1.53;;;;;;;5.19;47.08;100471.47;4974907;28;20184;-87
2022/03/14 00:28:07;;;;;;;4.63;1.90;;;;;;;5.03;47.09;100475.13;4974726;28;20551;-87
2022/03/14 00:30:32;;;;;;;3.27;2.27;;;;;;;5.02;47.68;100469.91;4975095;28;20200;-87
2022/03/14 00:32:58;;;;;;;7.40;2.70;;;;;;;5.11;47.97;100473.28;4975048;28;20566;-87
2022/03/14 00:35:24;;;;;;;3.10;1.77;;;;;;;5.05;47.97;100475.09;4957721;28;20199;-87
2022/03/14 00:37:49;;;;;;;7.40;2.37;;;;;;;5.00;47.74;100485.53;4957632;28;20269;-87
2022/03/14 00:40:15;;;;;;;8.43;2.57;;;;;;;4.81;48.67;100489.13;4973941;28;20650;-87
2022/03/14 00:42:40;;;;;;;6.03;2.80;;;;;;;4.80;49.25;100492.59;4957910;28;20271;-87
2022/03/14 00:45:07;;;;;;;6.53;2.90;;;;;;;4.81;49.30;100489.13;4957532;28;20197;-87
2022/03/14 00:47:32;;;;;;;3.97;2.27;;;;;;;4.89;48.49;100488.22;4957393;28;20334;-87
2022/03/14 00:49:58;;;;;;;6.27;2.97;;;;;;;4.96;48.21;100494.22;4957763;28;20623;-87
2022/03/14 00:52:23;;;;;;;5.63;2.90;;;;;;;4.96;48.71;100491.59;4975316;28;20187;-87
2022/03/14 00:54:49;;;;;;;6.60;2.43;;;;;;;5.00;49.03;100501.13;4974491;28;20599;-87
2022/03/14 00:57:15;;;;;;;4.40;2.23;;;;;;;4.78;49.72;100502.16;4956773;28;20172;-86
2022/03/14 00:59:41;;;;;;;5.40;2.23;;;;;;;4.80;49.76;100501.25;4974448;28;20190;-87
2022/03/14 01:02:08;;;;;;;6.83;2.57;;;;;;;4.89;49.69;100490.81;4957284;28;20343;-87
2022/03/14 01:04:34;;;;;;;9.67;3.60;;;;;;;4.90;49.12;100495.13;4957626;28;20195;-87
2022/03/14 01:07:00;;;;;;;5.23;2.50;;;;;;;5.01;49.19;100496.75;4957826;28;20294;-87
2022/03/14 01:09:25;;;;;;;9.37;2.77;;;;;;;5.04;49.23;100489.81;4958044;28;20226;-88
2022/03/14 01:11:51;;;;;;;5.23;2.23;;;;;;;5.03;49.56;100492.44;4974234;28;20651;-87
2022/03/14 01:14:17;;;;;;;6.70;3.00;;;;;;;5.05;49.49;100501.94;4974269;28;20184;-87
2022/03/14 01:16:42;;;;;;;5.17;2.80;;;;;;;5.01;49.78;100508.03;4957546;28;20173;-88
2022/03/14 01:19:11;;;;;;;10.20;3.30;;;;;;;5.05;50.09;100501.06;4957159;28;20193;-87
2022/03/14 01:21:38;;;;;;;4.80;2.80;;;;;;;5.04;49.56;100500.19;4957959;28;20715;-87
2022/03/14 01:24:05;;;;;;;8.63;3.23;;;;;;;5.03;50.32;100501.09;4957912;28;20183;-87
2022/03/14 01:26:30;;;;;;;3.83;2.67;;;;;;;5.06;49.94;100501.03;4957301;28;20291;-88
2022/03/14 01:28:56;;;;;;;4.53;2.10;;;;;;;5.14;49.36;100503.56;4957115;28;20271;-88
2022/03/14 01:31:22;;;;;;;6.70;2.87;;;;;;;5.16;49.59;100507.03;4974645;28;20658;-87
2022/03/14 01:33:47;;;;;;;10.47;2.97;;;;;;;5.13;49.22;100505.34;4974317;28;20251;-88
2022/03/14 01:36:13;;;;;;;8.17;3.57;;;;;;;5.07;49.91;100505.38;4974046;28;20208;-88
2022/03/14 01:38:38;;;;;;;10.23;4.83;;;;;;;5.00;48.96;100503.72;4957038;28;20192;-88
2022/03/14 01:41:04;;;;;;;10.00;3.70;;;;;;;4.91;49.51;100516.78;4973986;28;20172;-88
2022/03/14 01:43:29;;;;;;;9.07;3.40;;;;;;;4.90;49.52;100517.66;4974529;28;20273;-88
2022/03/14 01:45:58;;;;;;;6.23;2.30;;;;;;;4.91;49.26;100514.16;4973952;28;20184;-88
2022/03/14 01:48:25;;;;;;;10.10;3.00;;;;;;;5.02;49.48;100520.16;4957153;28;20229;-87
2022/03/14 01:50:52;;;;;;;9.67;3.53;;;;;;;5.04;49.04;100513.19;4956898;28;20614;-88
2022/03/14 01:53:19;;;;;;;15.03;2.90;;;;;;;5.00;49.16;100514.13;4973878;28;20265;-88
2022/03/14 01:55:46;;;;;;;6.80;2.83;;;;;;;5.00;49.85;100521.91;4956800;28;20261;-88
2022/03/14 01:58:11;;;;;;;6.47;2.10;;;;;;;4.91;49.87;100516.78;4973846;28;20170;-88
2022/03/14 02:00:37;;;;;;;5.57;2.37;;;;;;;4.93;49.67;100525.41;4957064;28;20258;-88
2022/03/14 02:03:02;;;;;;;8.40;2.73;;;;;;;4.98;49.81;100523.63;4957646;28;20186;-88
2022/03/14 02:05:28;;;;;;;6.67;3.17;;;;;;;5.05;49.75;100521.84;4957081;28;20195;-88
2022/03/14 02:07:57;;;;;;;4.50;2.37;;;;;;;5.07;49.31;100520.97;4974044;28;20561;-88
2022/03/14 02:10:22;;;;;;;7.40;2.47;;;;;;;5.04;49.64;100531.38;4961434;28;20185;-88
2022/03/14 02:12:48;;;;;;;7.40;2.47;;;;;;;5.03;49.99;100527.09;4960288;28;20182;-88
2022/03/14 02:15:14;;;;;;;2.77;2.00;;;;;;;5.04;49.33;100536.59;4977564;28;20184;-88
2022/03/14 02:17:39;;;;;;;4.13;2.33;;;;;;;4.98;49.75;100536.63;4960485;28;20540;-88
2022/03/14 02:20:05;;;;;;;11.37;2.13;;;;;;;4.92;50.17;100541.88;4977529;28;20611;-88
2022/03/14 02:22:30;;;;;;;4.73;1.90;;;;;;;4.94;50.21;100542.72;4977711;28;20182;-87
2022/03/14 02:24:56;;;;;;;8.03;3.03;;;;;;;4.96;50.33;100546.16;4960167;28;20192;-87
2022/03/14 02:27:22;;;;;;;9.07;2.40;;;;;;;4.96;50.28;100547.03;4977510;28;20206;-88
2022/03/14 02:29:47;;;;;;;7.63;2.83;;;;;;;5.00;50.09;100547.88;4960162;28;20712;-87
2022/03/14 02:32:13;;;;;;;8.47;3.03;;;;;;;5.02;50.18;100548.72;4960004;28;20177;-88
2022/03/14 02:34:40;;;;;;;3.87;2.17;;;;;;;4.98;49.35;100547.00;4960201;28;20276;-87
2022/03/14 02:37:06;;;;;;;2.47;1.50;;;;;;;4.98;47.72;100549.63;4977188;28;20168;-87
2022/03/14 02:39:32;;;;;;;6.07;2.50;;;;;;;4.98;47.55;100553.09;4977388;28;20606;-87
2022/03/14 02:42:01;;;;;;;6.07;2.10;;;;;;;4.89;46.57;100560.97;4959696;28;20181;-87
2022/03/14 02:44:27;;;;;;;6.50;2.13;;;;;;;4.84;46.80;100567.94;4976714;28;20512;-87
2022/03/14 02:46:52;;;;;;;4.40;2.13;;;;;;;4.74;47.14;100568.00;4959643;28;20215;-87
2022/03/14 02:49:18;;;;;;;2.90;2.17;;;;;;;4.65;47.33;100565.44;4959663;28;20180;-87
2022/03/14 02:51:45;;;;;;;3.27;1.97;;;;;;;4.35;48.16;100569.91;4959840;28;20193;-87
2022/03/14 02:54:11;;;;;;;3.87;1.83;;;;;;;4.16;47.80;100575.22;4976893;28;20267;-88
2022/03/14 02:56:37;;;;;;;4.13;1.63;;;;;;;4.05;48.60;100572.66;4959466;28;20200;-87
2022/03/14 02:59:05;;;;;;;3.00;1.67;;;;;;;3.86;49.31;100567.50;4959448;28;20594;-87
2022/03/14 03:01:32;;;;;;;2.33;1.40;;;;;;;3.94;48.75;100577.00;4959687;28;20279;-87
2022/03/14 03:03:57;;;;;;;3.93;1.83;;;;;;;4.10;48.40;100580.41;4976415;28;20327;-87
2022/03/14 03:06:23;;;;;;;7.20;1.70;;;;;;;4.06;48.12;100579.53;4976287;28;20219;-86
2022/03/14 03:08:50;;;;;;;7.37;2.47;;;;;;;4.01;48.33;100586.47;4976307;28;20247;-87
2022/03/14 03:11:16;;;;;;;4.30;2.40;;;;;;;3.94;48.64;100589.97;4976761;28;20557;-87
2022/03/14 03:13:42;;;;;;;2.03;1.43;;;;;;;3.91;48.92;100597.75;4976202;28;20740;-87
2022/03/14 03:16:09;;;;;;;5.23;2.57;;;;;;;3.92;49.31;100586.53;4976130;28;20741;-87
2022/03/14 03:18:35;;;;;;;4.73;1.73;;;;;;;3.94;48.96;100599.47;4976086;28;20180;-87
2022/03/14 03:21:02;;;;;;;5.07;1.30;;;;;;;3.86;49.38;100602.09;4975099;28;20184;-87
2022/03/14 03:23:28;;;;;;;3.63;1.80;;;;;;;3.82;49.35;100600.38;4959016;28;20191;-90
2022/03/14 03:25:54;;;;;;;8.90;2.50;;;;;;;3.77;49.26;100604.72;4976005;28;20240;-89
2022/03/14 03:28:20;;;;;;;3.17;1.93;;;;;;;3.63;49.78;100614.22;4958818;28;20212;-89
2022/03/14 03:30:45;;;;;;;2.87;1.73;;;;;;;3.75;50.18;100614.22;4975682;28;20228;-87
2022/03/14 03:33:11;;;;;;;4.97;2.50;;;;;;;3.89;49.47;100615.06;4959615;28;20180;-87
2022/03/14 03:35:36;;;;;;;4.37;1.27;;;;;;;3.95;49.35;100617.66;4976085;28;20430;-87
2022/03/14 03:38:02;;;;;;;5.87;2.10;;;;;;;4.08;48.77;100621.94;4975807;28;20181;-87
2022/03/14 03:40:28;;;;;;;1.90;1.70;;;;;;;4.15;49.07;100617.59;4976254;28;20631;-87
2022/03/14 03:42:53;;;;;;;3.03;1.70;;;;;;;4.01;48.96;100627.16;4958918;28;20192;-88
2022/03/14 03:45:19;;;;;;;4.60;2.27;;;;;;;3.90;49.08;100624.59;4975913;28;20623;-87
2022/03/14 03:47:44;;;;;;;7.77;2.03;;;;;;;3.90;49.18;100632.38;4975778;28;20531;-88
2022/03/14 03:50:10;;;;;;;3.40;2.63;;;;;;;3.89;49.52;100630.63;4958560;28;20180;-87
2022/03/14 03:52:36;;;;;;;12.37;2.43;;;;;;;3.93;49.27;100632.31;4975488;28;20189;-87
2022/03/14 03:55:02;;;;;;;3.43;2.03;;;;;;;3.85;48.98;100641.88;4975418;28;20184;-87
2022/03/14 03:57:28;;;;;;;1.87;0.87;;;;;;;3.93;48.98;100640.09;4975652;28;20188;-87
2022/03/14 03:59:53;;;;;;;2.93;1.20;;;;;;;4.00;48.67;100643.56;4958327;28;20589;-87
2022/03/14 04:02:19;;;;;;;10.53;1.80;;;;;;;3.84;49.34;100640.16;4958357;28;20188;-87
2022/03/14 04:04:50;;;;;;;4.53;2.83;;;;;;;3.85;49.09;100651.38;4974329;28;20664;-89
2022/03/14 04:07:19;;;;;;;3.00;1.67;;;;;;;3.82;49.29;100646.19;4958140;28;20204;-90
2022/03/14 04:09:50;;;;;;;4.27;1.83;;;;;;;3.73;49.08;100652.25;4958210;28;20188;-89
2022/03/14 04:12:15;;;;;;;5.93;2.17;;;;;;;3.85;49.65;100657.44;4975337;28;20183;-87
2022/03/14 04:14:41;;;;;;;6.23;3.07;;;;;;;3.96;49.12;100649.63;4975354;28;20263;-88
2022/03/14 04:17:07;;;;;;;4.43;2.00;;;;;;;4.01;48.56;100666.06;4975375;28;20176;-87
2022/03/14 04:19:34;;;;;;;2.77;1.70;;;;;;;4.04;48.98;100664.31;4958004;28;20595;-86
2022/03/14 04:22:00;;;;;;;6.83;2.20;;;;;;;4.14;48.50;100665.19;4975223;28;20191;-87
2022/03/14 04:24:26;;;;;;;6.63;1.93;;;;;;;4.08;48.58;100671.25;4958675;28;20184;-87
2022/03/14 04:26:52;;;;;;;4.20;2.03;;;;;;;4.00;48.76;100669.50;4957792;28;20219;-87
2022/03/14 04:29:17;;;;;;;4.57;2.00;;;;;;;4.16;48.28;100673.81;4958037;28;20622;-87
2022/03/14 04:31:43;;;;;;;6.13;1.63;;;;;;;4.14;48.06;100673.81;4957881;28;20248;-87
2022/03/14 04:34:10;;;;;;;4.17;2.20;;;;;;;4.27;48.16;100678.09;4974772;28;20208;-87
2022/03/14 04:36:36;;;;;;;10.00;2.27;;;;;;;4.17;48.16;100681.59;4974728;28;20169;-87
2022/03/14 04:39:03;;;;;;;1.97;1.23;;;;;;;4.29;48.05;100684.16;4957693;28;20184;-88
2022/03/14 04:41:29;;;;;;;2.90;1.70;;;;;;;4.41;47.82;100679.78;4957933;28;20192;-87
2022/03/14 04:43:54;;;;;;;3.83;1.47;;;;;;;4.35;48.10;100681.53;4974590;28;20661;-86
2022/03/14 04:46:19;;;;;;;2.63;1.87;;;;;;;4.33;47.57;100683.28;4957564;28;20180;-88
2022/03/14 04:48:45;;;;;;;3.00;1.63;;;;;;;4.22;47.57;100689.34;4957518;28;20547;-87
2022/03/14 04:51:11;;;;;;;2.30;1.20;;;;;;;4.31;47.64;100695.41;4957531;28;20180;-87
2022/03/14 04:53:36;;;;;;;2.93;1.90;;;;;;;4.40;47.51;100693.66;4974798;28;20172;-87
2022/03/14 04:56:02;;;;;;;3.93;1.70;;;;;;;4.45;47.46;100697.97;4957427;28;20207;-87
2022/03/14 04:58:28;;;;;;;2.20;1.80;;;;;;;4.42;47.40;100691.91;4957392;28;20209;-87
2022/03/14 05:00:54;;;;;;;4.70;1.83;;;;;;;4.52;47.20;100702.25;4957406;28;20188;-87
2022/03/14 05:03:20;;;;;;;11.10;2.73;;;;;;;4.57;46.81;100697.91;4957304;28;20607;-88
2022/03/14 05:05:46;;;;;;;5.40;2.43;;;;;;;4.62;46.96;100705.69;4974590;28;20176;-88
2022/03/14 05:08:12;;;;;;;3.40;1.70;;;;;;;4.73;46.06;100714.31;4974525;28;20204;-87
2022/03/14 05:10:37;;;;;;;2.67;1.40;;;;;;;4.78;46.43;100707.34;4957527;28;20199;-88
2022/03/14 05:13:03;;;;;;;4.00;1.53;;;;;;;4.75;46.46;100713.44;4957574;28;20192;-88
2022/03/14 05:15:33;;;;;;;3.10;1.60;;;;;;;4.61;46.65;100719.56;4957852;28;20616;-87
2022/03/14 05:17:58;;;;;;;3.50;2.23;;;;;;;4.55;46.34;100728.22;4957217;28;20191;-87
2022/03/14 05:20:24;;;;;;;3.87;1.63;;;;;;;4.62;46.36;100734.25;4974470;28;20180;-87
2022/03/14 05:22:50;;;;;;;2.40;1.63;;;;;;;4.71;46.31;100739.44;4957463;28;20192;-87
2022/03/14 05:25:20;;;;;;;4.93;2.07;;;;;;;4.90;46.13;100736.75;4974473;28;20180;-88
2022/03/14 05:27:46;;;;;;;4.23;2.23;;;;;;;4.81;46.05;100744.59;4974364;28;20283;-87
2022/03/14 05:30:12;;;;;;;3.10;1.80;;;;;;;4.92;46.10;100745.41;4974180;28;20227;-87
2022/03/14 05:32:42;;;;;;;12.67;2.07;;;;;;;4.98;45.71;100742.78;4974648;28;20247;-87
2022/03/14 05:35:11;;;;;;;3.53;2.17;;;;;;;4.92;46.11;100739.34;4974089;28;20189;-87
2022/03/14 05:37:40;;;;;;;4.33;2.50;;;;;;;4.84;45.52;100754.09;4974873;28;20253;-87
2022/03/14 05:40:07;;;;;;;1.87;1.37;;;;;;;4.86;45.91;100748.03;4957565;28;20301;-87
2022/03/14 05:42:32;;;;;;;2.93;1.17;;;;;;;4.88;45.45;100755.81;4957240;28;20235;-87
2022/03/14 05:44:58;;;;;;;4.17;1.87;;;;;;;5.04;45.26;100757.47;4978182;28;20208;-88
2022/03/14 05:47:24;;;;;;;2.40;1.37;;;;;;;5.18;45.13;100755.69;4977983;28;20219;-87
2022/03/14 05:49:49;;;;;;;1.50;1.07;;;;;;;5.26;44.78;100759.13;4960994;28;20189;-86
2022/03/14 05:52:16;;;;;;;2.50;1.63;;;;;;;5.40;44.56;100757.28;4977753;28;20196;-87
2022/03/14 05:54:41;;;;;;;6.57;1.73;;;;;;;5.42;44.92;100765.94;4977685;28;20184;-87
2022/03/14 05:57:07;;;;;;;3.57;2.07;;;;;;;5.35;44.45;100761.66;4977926;28;20650;-86
2022/03/14 05:59:32;;;;;;;2.10;1.20;;;;;;;5.46;45.03;100770.25;4960590;28;20177;-86
2022/03/14 06:01:58;;;;;;;3.63;2.33;;;;;;;5.53;45.27;100769.34;4960492;28;20194;-86
2022/03/14 06:04:23;;;;;;;6.07;2.27;;;;;;;5.72;45.14;100771.81;4960410;28;20651;-86
2022/03/14 06:06:49;;;;;;;4.50;2.67;;;;;;;5.65;44.68;100767.53;4960250;28;20197;-86
2022/03/14 06:09:14;;;;;;;3.20;1.53;;;;;;;5.68;45.05;100776.19;4977986;28;20176;-86
2022/03/14 06:11:41;;;;;;;5.80;2.17;;;;;;;5.77;44.72;100772.66;4977630;28;20177;-86
2022/03/14 06:14:07;;;;;;;6.07;2.07;;;;;;;5.71;44.36;100780.50;4977593;28;20622;-86
2022/03/14 06:16:33;;;;;;;6.47;2.00;;;;;;;5.91;44.36;100781.25;4976575;28;20193;-86
2022/03/14 06:18:58;;;;;;;11.40;2.33;;;;;;;6.11;44.27;100782.81;4960957;28;20186;-87
2022/03/14 06:21:24;;;;;;;5.13;1.83;;;;;;;6.25;42.63;100787.06;4977209;28;20257;-87
2022/03/14 06:23:50;;;;;;;3.97;1.80;;;;;;;7.12;42.49;100785.25;4960855;28;20186;-86
2022/03/14 06:26:16;;;;;;;3.27;2.00;;;;;;;8.51;39.47;100777.94;4977294;28;20248;-87
2022/03/14 06:28:42;;;;;;;3.67;2.10;;;;;;;9.31;39.40;100772.84;4977301;28;20195;-87
2022/03/14 06:31:10;;;;;;;3.30;2.30;;;;;;;9.70;36.34;100767.59;4977533;28;20207;-87
2022/03/14 06:33:37;;;;;;;2.43;1.57;;;;;;;9.85;35.90;100780.31;4960074;28;20200;-87
2022/03/14 06:36:03;;;;;;;2.83;1.80;;;;;;;10.45;35.73;100779.78;4960135;28;20268;-88
2022/03/14 06:38:29;;;;;;;7.73;2.43;;;;;;;11.02;32.93;100772.06;4977134;28;20252;-87
2022/03/14 06:40:56;;;;;;;4.87;2.43;;;;;;;11.83;32.97;100773.16;4959753;28;20271;-88
2022/03/14 06:43:23;;;;;;;3.43;1.80;;;;;;;11.93;31.08;100777.22;4959756;28;20196;-87
2022/03/14 06:45:49;;;;;;;8.23;2.23;;;;;;;11.97;32.61;100779.72;4976748;28;20217;-88
2022/03/14 06:48:15;;;;;;;6.17;2.57;;;;;;;12.42;33.10;100777.31;4976885;28;20208;-88
2022/03/14 06:50:41;;;;;;;5.73;2.60;;;;;;;12.88;30.36;100780.06;4976624;28;20182;-88
2022/03/14 06:53:07;;;;;;;4.67;1.97;;;;;;;13.01;29.45;100779.63;4959518;28;20181;-88
2022/03/14 06:55:32;;;;;;;4.97;1.70;;;;;;;13.00;30.17;100778.75;4976697;28;20187;-88
2022/03/14 06:57:58;;;;;;;5.20;2.27;;;;;;;12.91;29.64;100787.88;4975846;28;20646;-88
2022/03/14 07:00:24;;;;;;;7.90;2.17;;;;;;;12.92;29.37;100802.72;4976500;28;20190;-88
2022/03/14 07:02:50;;;;;;;3.33;1.93;;;;;;;12.60;29.40;100799.50;4976445;28;20185;-90
2022/03/14 07:05:20;;;;;;;6.17;2.47;;;;;;;12.22;30.10;100808.66;4959384;28;20188;-89
2022/03/14 07:07:49;;;;;;;8.10;2.43;;;;;;;12.03;30.48;100807.53;4976279;28;20254;-89
2022/03/14 07:10:16;;;;;;;4.97;2.67;;;;;;;11.89;31.53;100815.00;4976283;28;20180;-89
2022/03/14 07:12:48;;;;;;;4.70;2.30;;;;;;;12.33;31.35;100804.78;4976855;28;20187;-89
2022/03/14 07:15:16;;;;;;;6.80;2.60;;;;;;;12.74;31.44;100808.63;4976270;28;20606;-90
2022/03/14 07:17:42;;;;;;;8.13;3.17;;;;;;;12.66;30.91;100805.41;4976208;28;20167;-89
2022/03/14 07:20:10;;;;;;;7.10;2.40;;;;;;;12.01;31.69;100810.22;4976163;28;20191;-89
2022/03/14 07:22:52;;;;;;;5.50;2.20;;;;;;;12.27;32.60;100809.38;4976099;28;20191;-88
2022/03/14 07:25:40;;;;;;;4.93;2.50;;;;;;;12.51;33.07;100816.47;4976412;28;20199;-90
2022/03/14 07:28:08;;;;;;;4.10;2.60;;;;;;;12.61;31.74;100820.50;4975947;28;20219;-88
2022/03/14 07:30:38;;;;;;;8.30;2.80;;;;;;;12.61;32.52;100819.63;4975709;28;20188;-90
2022/03/14 07:33:04;;;;;;;4.10;2.20;;;;;;;12.39;32.29;100814.25;4976301;28;20187;-90
2022/03/14 07:35:30;;;;;;;6.47;3.20;;;;;;;12.26;33.57;100831.34;4975838;28;20181;-90
2022/03/14 07:37:56;;;;;;;6.13;2.63;;;;;;;12.24;33.35;100825.25;4976073;28;20176;-90
2022/03/14 07:40:23;;;;;;;6.63;3.17;;;;;;;12.06;32.98;100837.22;4975688;28;20191;-89
2022/03/14 07:42:50;;;;;;;3.97;2.13;;;;;;;12.03;34.97;100839.06;4975821;28;20183;-90
2022/03/14 07:45:19;;;;;;;5.17;2.47;;;;;;;12.19;33.67;100841.19;4976232;28;20177;-91
2022/03/14 07:47:44;;;;;;;3.73;2.03;;;;;;;11.94;35.28;100834.13;4975816;28;20716;-89
2022/03/14 07:50:14;;;;;;;6.47;1.83;;;;;;;11.37;34.94;100837.53;4958747;28;20263;-90
2022/03/14 07:52:40;;;;;;;5.27;2.27;;;;;;;11.08;34.69;100848.84;4975810;28;20267;-90
2022/03/14 07:55:07;;;;;;;5.50;2.20;;;;;;;11.22;33.81;100853.72;4974608;28;20183;-90
2022/03/14 07:57:37;;;;;;;6.60;2.97;;;;;;;11.68;35.12;100845.41;4975395;28;20635;-89
2022/03/14 08:00:06;;;;;;;5.73;2.70;;;;;;;11.57;33.98;100836.97;4975494;28;20172;-90
2022/03/14 08:02:31;;;;;;;5.03;2.20;;;;;;;11.50;34.29;100838.06;4975419;28;20237;-89
2022/03/14 08:04:57;;;;;;;8.43;2.97;;;;;;;11.45;34.64;100840.81;4975610;28;20192;-90
2022/03/14 08:07:23;;;;;;;7.10;2.97;;;;;;;10.67;35.95;100850.84;4975296;28;20250;-90
2022/03/14 08:09:48;;;;;;;7.43;3.90;;;;;;;10.74;35.53;100841.94;4958169;28;20229;-89
2022/03/14 08:12:17;;;;;;;7.50;2.93;;;;;;;10.84;35.84;100848.66;4975176;28;20188;-90
2022/03/14 08:14:43;;;;;;;8.77;3.07;;;;;;;10.69;36.46;100851.69;4975649;28;20191;-89
2022/03/14 08:17:09;;;;;;;2.60;1.33;;;;;;;10.61;35.04;100854.50;4958053;28;20220;-90
2022/03/14 08:19:35;;;;;;;6.77;3.10;;;;;;;10.88;37.16;100858.16;4975073;28;20181;-89
2022/03/14 08:22:02;;;;;;;3.70;1.83;;;;;;;10.61;36.28;100858.91;4975340;28;20189;-90
2022/03/14 08:24:27;;;;;;;6.17;2.40;;;;;;;10.42;36.22;100856.72;4958116;28;20187;-90
2022/03/14 08:26:53;;;;;;;7.20;3.10;;;;;;;10.88;36.83;100858.16;4974930;28;20298;-90
2022/03/14 08:29:19;;;;;;;6.73;2.50;;;;;;;11.05;36.01;100855.97;4957955;28;20192;-90
2022/03/14 08:31:44;;;;;;;6.50;2.60;;;;;;;11.17;34.44;100850.38;4974785;28;20203;-90
2022/03/14 08:34:11;;;;;;;6.03;2.30;;;;;;;11.08;33.74;100853.25;4975455;28;20181;-90
2022/03/14 08:36:40;;;;;;;6.03;2.47;;;;;;;10.81;35.40;100852.22;4958936;28;20184;-90
2022/03/14 08:39:09;;;;;;;4.00;2.10;;;;;;;10.80;35.26;100852.25;4975051;28;20326;-90
2022/03/14 08:41:36;;;;;;;3.07;1.87;;;;;;;10.42;35.51;100845.38;4957765;28;20207;-92
2022/03/14 08:44:05;;;;;;;3.80;1.87;;;;;;;10.36;35.83;100859.50;4957997;28;20581;-92
2022/03/14 08:46:31;;;;;;;5.43;2.37;;;;;;;10.59;35.90;100864.16;4974889;28;20190;-91
2022/03/14 08:48:57;;;;;;;3.97;1.73;;;;;;;10.80;34.79;100857.50;4958008;28;20187;-89
2022/03/14 08:51:23;;;;;;;4.23;1.80;;;;;;;11.19;34.35;100843.31;4974677;28;20176;-90
2022/03/14 08:53:48;;;;;;;4.27;2.63;;;;;;;11.15;34.65;100852.19;4957617;28;20195;-90
2022/03/14 08:56:14;;;;;;;6.03;3.13;;;;;;;11.40;34.25;100836.63;4974725;28;20535;-90
2022/03/14 08:58:40;;;;;;;5.20;1.97;;;;;;;10.59;34.84;100855.44;4974706;28;20563;-90
2022/03/14 09:01:07;;;;;;;7.77;2.43;;;;;;;10.75;35.41;100841.88;4974703;28;20177;-91
2022/03/14 09:03:32;;;;;;;8.47;2.67;;;;;;;10.78;35.35;100848.81;4974468;28;20176;-89
2022/03/14 09:05:58;;;;;;;4.80;2.10;;;;;;;10.71;35.27;100850.75;4974444;28;20598;-90
2022/03/14 09:08:24;;;;;;;5.00;2.57;;;;;;;10.88;35.25;100850.28;4957414;28;20263;-90
2022/03/14 09:10:53;;;;;;;4.43;1.90;;;;;;;10.67;34.72;100849.09;4974948;28;20199;-90
2022/03/14 09:13:21;;;;;;;5.33;2.80;;;;;;;10.85;34.68;100850.38;4974968;28;20180;-90
2022/03/14 09:15:48;;;;;;;6.97;2.73;;;;;;;10.65;34.82;100852.66;4957415;28;20286;-90
2022/03/14 09:18:14;;;;;;;5.73;2.93;;;;;;;10.87;35.11;100856.47;4975805;28;20175;-91
2022/03/14 09:20:41;;;;;;;4.73;2.33;;;;;;;11.02;34.29;100850.78;4978848;28;20176;-90
2022/03/14 09:23:08;;;;;;;6.87;2.83;;;;;;;11.18;35.31;100856.50;4978572;28;20259;-90
2022/03/14 09:25:34;;;;;;;5.30;2.63;;;;;;;11.32;34.26;100859.59;4978205;28;20233;-90
2022/03/14 09:27:59;;;;;;;5.83;2.53;;;;;;;11.07;34.61;100856.78;4978208;28;20290;-90
2022/03/14 09:30:26;;;;;;;4.07;1.97;;;;;;;11.01;33.34;100859.56;4978074;28;20199;-90
2022/03/14 09:32:53;;;;;;;4.13;2.23;;;;;;;10.88;33.45;100868.66;4961156;28;20195;-90
2022/03/14 09:35:21;;;;;;;6.70;2.00;;;;;;;10.86;33.59;100870.47;4961086;28;20194;-90
2022/03/14 09:37:47;;;;;;;4.33;2.53;;;;;;;10.98;33.90;100867.50;4978053;28;20235;-90
2022/03/14 09:40:17;;;;;;;5.30;2.27;;;;;;;11.03;33.32;100873.53;4961064;28;20188;-91
2022/03/14 09:42:45;;;;;;;4.67;2.60;;;;;;;11.11;33.27;100868.91;4960951;28;20331;-89
2022/03/14 09:45:14;;;;;;;4.43;2.13;;;;;;;10.96;34.67;100875.44;4960936;28;20184;-89
2022/03/14 09:47:42;;;;;;;4.60;2.00;;;;;;;10.98;34.20;100876.25;4978053;28;20204;-90
2022/03/14 09:50:20;;;;;;;4.47;2.17;;;;;;;11.00;33.27;100878.84;4978058;28;20255;-89
2022/03/14 09:52:46;;;;;;;6.40;2.77;;;;;;;10.75;33.80;100876.00;4960722;28;20581;-90
2022/03/14 09:55:13;;;;;;;5.83;2.40;;;;;;;10.75;34.50;100873.38;4961249;28;20274;-90
2022/03/14 09:57:39;;;;;;;5.00;2.37;;;;;;;10.67;34.58;100877.06;4977648;28;20210;-89
2022/03/14 10:00:07;;;;;;;9.20;3.27;;;;;;;10.38;34.61;100881.28;4977654;28;20228;-89
2022/03/14 10:02:39;;;;;;;5.93;2.20;;;;;;;9.81;34.50;100886.06;4977525;28;20325;-89
2022/03/14 10:05:08;;;;;;;5.53;2.90;;;;;;;10.00;34.73;100886.53;4977822;28;20161;-90
2022/03/14 10:07:39;;;;;;;6.57;2.37;;;;;;;10.20;34.50;100876.47;4977646;28;20207;-89
2022/03/14 10:10:05;;;;;;;6.37;2.53;;;;;;;10.38;34.79;100883.91;4977662;28;20191;-90
2022/03/14 10:12:32;;;;;;;7.40;2.47;;;;;;;10.33;33.89;100887.53;4977607;28;20176;-89
2022/03/14 10:14:59;;;;;;;4.97;2.20;;;;;;;10.11;33.96;100874.06;4977262;28;20180;-90
2022/03/14 10:17:26;;;;;;;4.60;2.30;;;;;;;10.19;34.58;100881.78;4977321;28;20181;-89
2022/03/14 10:19:57;;;;;;;5.50;1.60;;;;;;;10.21;34.14;100878.22;4977513;28;20258;-89
2022/03/14 10:22:23;;;;;;;5.37;2.20;;;;;;;10.08;33.83;100873.25;4977731;28;20219;-88
2022/03/14 10:25:01;;;;;;;5.53;2.07;;;;;;;9.93;34.31;100884.94;4977111;28;20276;-89
2022/03/14 10:27:27;;;;;;;4.53;2.27;;;;;;;10.05;35.13;100871.56;4977040;28;20192;-89
2022/03/14 10:29:52;;;;;;;10.23;2.60;;;;;;;10.09;35.06;100878.44;4976545;28;20660;-89
2022/03/14 10:32:30;;;;;;;4.77;2.17;;;;;;;10.15;34.78;100877.47;4977573;28;20196;-89
2022/03/14 10:35:00;;;;;;;4.87;2.47;;;;;;;10.24;34.01;100878.16;4977287;28;20225;-88
2022/03/14 10:37:28;;;;;;;5.27;2.20;;;;;;;10.35;34.89;100878.72;4959881;28;20183;-89
2022/03/14 10:40:04;;;;;;;5.07;1.93;;;;;;;10.32;34.88;100883.19;4977151;28;20211;-89
2022/03/14 10:42:40;;;;;;;4.27;1.67;;;;;;;10.14;34.19;100876.59;4977158;28;20518;-89
2022/03/14 10:45:13;;;;;;;4.60;2.40;;;;;;;10.03;34.90;100875.13;4976843;28;20161;-88
2022/03/14 10:47:57;;;;;;;6.07;2.90;;;;;;;10.04;36.22;100869.81;4976987;28;20281;-89
2022/03/14 10:50:39;;;;;;;8.37;3.43;;;;;;;10.13;35.66;100874.03;4977196;28;20179;-89
2022/03/14 10:53:16;;;;;;;3.10;1.50;;;;;;;10.19;36.68;100871.28;4977205;28;20227;-90
2022/03/14 10:55:46;;;;;;;6.17;2.60;;;;;;;10.25;35.28;100865.88;4976910;28;20177;-88
2022/03/14 10:58:14;;;;;;;5.50;2.40;;;;;;;10.36;35.10;100864.75;4976535;28;20255;-89
2022/03/14 11:00:52;;;;;;;4.53;2.57;;;;;;;10.42;35.21;100869.84;4959488;28;20188;-89
2022/03/14 11:03:29;;;;;;;4.00;2.00;;;;;;;10.62;33.74;100871.09;4976474;28;20203;-90
2022/03/14 11:06:01;;;;;;;5.67;2.60;;;;;;;10.87;33.61;100867.81;4976756;28;20675;-89
2022/03/14 11:08:36;;;;;;;5.20;2.50;;;;;;;10.74;33.17;100866.41;4976331;28;20243;-90
2022/03/14 11:11:16;;;;;;;6.27;2.30;;;;;;;10.86;33.24;100871.34;4976286;28;20191;-89
2022/03/14 11:13:47;;;;;;;3.87;2.00;;;;;;;10.99;33.64;100866.63;4976539;28;20170;-88
2022/03/14 11:16:23;;;;;;;5.27;2.23;;;;;;;11.11;32.83;100861.03;4959098;28;20278;-88
2022/03/14 11:18:50;;;;;;;6.20;2.23;;;;;;;11.16;33.52;100864.41;4976631;28;20184;-88
2022/03/14 11:21:27;;;;;;;5.43;2.10;;;;;;;11.27;33.38;100857.09;4976135;28;20192;-88
2022/03/14 11:23:55;;;;;;;5.43;2.77;;;;;;;11.25;32.48;100858.03;4976378;28;20604;-88
2022/03/14 11:26:25;;;;;;;3.50;1.90;;;;;;;11.43;32.81;100847.00;4959054;28;20184;-89
2022/03/14 11:28:52;;;;;;;4.80;2.57;;;;;;;11.42;32.41;100846.16;4975928;28;20270;-89